Time;durP1;ratioP1;P1;durP2;ratioP2;P2;SDS_P1;SDS_P2;PMS_P1;PMS_P2;Temp;Humidity;BMP_temperature;BMP_pressure;BME280_temperature;BME280_humidity;BME280_pressure;Samples;Min_cycle;Max_cycle;Signal;HPM_P1;HPM_P2
2021/08/11 00:00:58;;;;;;;0.50;0.50;;;15.80;99.90;;;;;;4413365;32;20078;-64
2021/08/11 00:03:23;;;;;;;0.30;0.30;;;15.90;99.90;;;;;;4413318;32;20074;-64
2021/08/11 00:05:49;;;;;;;0.32;0.32;;;16.00;99.90;;;;;;4414132;32;20131;-65
2021/08/11 00:08:14;;;;;;;0.37;0.37;;;16.00;99.90;;;;;;4400597;32;20510;-63
2021/08/11 00:10:40;;;;;;;0.30;0.30;;;16.10;99.90;;;;;;4414030;32;20078;-64
2021/08/11 00:13:06;;;;;;;1.77;0.73;;;16.00;99.90;;;;;;4388244;32;20439;-63
2021/08/11 00:15:31;;;;;;;0.30;0.30;;;16.00;99.90;;;;;;4413714;32;20077;-63
2021/08/11 00:17:57;;;;;;;0.40;0.40;;;16.00;99.90;;;;;;4413690;32;20484;-62
2021/08/11 00:20:24;;;;;;;0.40;0.40;;;16.00;99.90;;;;;;4414402;32;20066;-63
2021/08/11 00:22:50;;;;;;;0.40;0.40;;;16.00;99.90;;;;;;4401426;32;20065;-63
2021/08/11 00:25:15;;;;;;;0.40;0.40;;;16.00;99.90;;;;;;4413926;32;20546;-65
2021/08/11 00:27:41;;;;;;;0.85;0.82;;;16.00;99.90;;;;;;4400476;32;20082;-64
2021/08/11 00:30:07;;;;;;;0.62;0.52;;;16.00;99.90;;;;;;4412967;32;20070;-64
2021/08/11 00:32:32;;;;;;;0.50;0.50;;;16.00;99.90;;;;;;4388418;32;20404;-63
2021/08/11 00:34:58;;;;;;;0.30;0.30;;;16.00;99.90;;;;;;4412538;32;20158;-62
2021/08/11 00:37:23;;;;;;;0.30;0.30;;;16.00;99.90;;;;;;4414374;32;20062;-63
2021/08/11 00:39:49;;;;;;;1.45;0.43;;;16.00;99.90;;;;;;4414602;32;20073;-61
2021/08/11 00:42:14;;;;;;;0.70;0.70;;;16.00;99.90;;;;;;4415994;32;20461;-62
2021/08/11 00:44:40;;;;;;;2.17;1.27;;;15.90;99.90;;;;;;4416168;32;20081;-63
2021/08/11 00:47:06;;;;;;;0.30;0.30;;;15.80;99.90;;;;;;4416519;32;20125;-62
2021/08/11 00:49:31;;;;;;;0.65;0.65;;;15.80;99.90;;;;;;4414486;32;20127;-62
2021/08/11 00:51:58;;;;;;;3.55;1.62;;;15.80;99.90;;;;;;4402967;32;20133;-63
2021/08/11 00:54:25;;;;;;;0.40;0.40;;;15.80;99.90;;;;;;4415382;32;20062;-62
2021/08/11 00:56:53;;;;;;;0.32;0.32;;;15.80;99.90;;;;;;4415654;32;20124;-64
2021/08/11 00:59:20;;;;;;;0.50;0.50;;;15.80;99.90;;;;;;4403793;32;20070;-62
2021/08/11 01:01:49;;;;;;;0.68;0.68;;;15.70;99.90;;;;;;4415383;32;20506;-63
2021/08/11 01:04:16;;;;;;;0.50;0.50;;;15.60;99.90;;;;;;4414826;32;20058;-63
2021/08/11 01:06:43;;;;;;;0.50;0.50;;;15.50;99.90;;;;;;4414439;32;20075;-63
2021/08/11 01:09:13;;;;;;;1.95;1.05;;;15.50;99.90;;;;;;4416958;32;20066;-64
2021/08/11 01:11:39;;;;;;;0.50;0.50;;;15.50;99.90;;;;;;4416077;32;20074;-63
2021/08/11 01:14:05;;;;;;;2.55;0.62;;;15.50;99.90;;;;;;4414375;32;20118;-64
2021/08/11 01:16:31;;;;;;;0.40;0.40;;;15.60;99.90;;;;;;4414928;32;20069;-62
2021/08/11 01:18:56;;;;;;;1.58;0.50;;;15.60;99.90;;;;;;4415035;32;20471;-62
2021/08/11 01:21:30;;;;;;;0.37;0.37;;;15.60;99.90;;;;;;4416742;32;20065;-63
2021/08/11 01:24:24;;;;;;;0.50;0.50;;;15.60;99.90;;;;;;4402751;32;20065;-64
2021/08/11 01:27:18;;;;;;;0.40;0.40;;;15.70;99.90;;;;;;4400661;32;20071;-63
2021/08/11 01:30:16;;;;;;;0.50;0.50;;;15.60;99.90;;;;;;4390353;32;20126;-63
2021/08/11 01:32:57;;;;;;;0.30;0.30;;;15.60;99.90;;;;;;4390159;32;20070;-64
2021/08/11 01:35:26;;;;;;;0.20;0.20;;;15.50;99.90;;;;;;4411544;32;20519;-64
2021/08/11 01:37:55;;;;;;;2.08;0.88;;;15.50;99.90;;;;;;4414869;32;20069;-62
2021/08/11 01:40:27;;;;;;;0.35;0.35;;;15.50;99.90;;;;;;4415402;32;20081;-64
2021/08/11 01:42:54;;;;;;;0.47;0.47;;;15.50;99.90;;;;;;4416478;32;20066;-62
2021/08/11 01:45:27;;;;;;;0.30;0.30;;;15.60;99.90;;;;;;4415878;32;20086;-63
2021/08/11 01:47:58;;;;;;;0.45;0.45;;;15.60;99.90;;;;;;4414854;32;20074;-62
2021/08/11 01:50:24;;;;;;;;;;;15.60;99.90;;;;;;4415436;32;20062;-63
2021/08/11 01:52:51;;;;;;;1.05;0.57;;;15.40;99.90;;;;;;4416284;32;20379;-64
2021/08/11 01:55:17;;;;;;;0.47;0.40;;;15.40;99.90;;;;;;4415719;32;20159;-63
2021/08/11 01:57:48;;;;;;;0.30;0.30;;;15.40;99.90;;;;;;4416214;32;20077;-63
2021/08/11 02:00:14;;;;;;;2.28;1.20;;;15.40;99.90;;;;;;4414458;32;20096;-62
2021/08/11 02:02:41;;;;;;;0.50;0.40;;;15.30;99.90;;;;;;4414216;32;20073;-62
2021/08/11 02:05:09;;;;;;;0.32;0.32;;;15.30;99.90;;;;;;4414407;32;20124;-63
2021/08/11 02:07:35;;;;;;;0.73;0.73;;;15.40;99.90;;;;;;4415397;32;20082;-62
2021/08/11 02:10:01;;;;;;;0.40;0.40;;;15.40;99.90;;;;;;4414954;32;20085;-63
2021/08/11 02:12:27;;;;;;;0.52;0.50;;;15.40;99.90;;;;;;4415457;32;20116;-63
2021/08/11 02:14:53;;;;;;;0.47;0.47;;;15.40;99.90;;;;;;4415595;32;20050;-62
2021/08/11 02:17:19;;;;;;;0.75;0.73;;;15.50;99.90;;;;;;4414030;32;20132;-63
2021/08/11 02:19:46;;;;;;;3.00;1.05;;;15.50;99.90;;;;;;4414638;32;20073;-62
2021/08/11 02:22:11;;;;;;;0.30;0.30;;;15.50;99.90;;;;;;4415065;32;20132;-61
2021/08/11 02:24:37;;;;;;;0.60;0.50;;;15.50;99.90;;;;;;4413993;32;20569;-63
2021/08/11 02:27:11;;;;;;;0.40;0.40;;;15.40;99.90;;;;;;4413409;32;20058;-62
2021/08/11 02:30:00;;;;;;;0.60;0.50;;;15.40;99.90;;;;;;4413684;32;20083;-63
2021/08/11 02:32:38;;;;;;;0.50;0.50;;;15.40;99.90;;;;;;4415034;32;20513;-63
2021/08/11 02:35:26;;;;;;;0.40;0.40;;;15.50;99.90;;;;;;4405758;32;20252;-63
2021/08/11 02:37:58;;;;;;;0.30;0.30;;;15.40;99.90;;;;;;4404248;32;20073;-61
2021/08/11 02:40:45;;;;;;;0.40;0.40;;;15.40;99.90;;;;;;4415517;32;20120;-61
2021/08/11 02:43:24;;;;;;;4.62;1.40;;;15.50;99.90;;;;;;4414862;32;20065;-62
2021/08/11 02:45:53;;;;;;;0.80;0.60;;;15.40;99.90;;;;;;4402505;32;20074;-58
2021/08/11 02:48:20;;;;;;;1.77;0.88;;;15.40;99.90;;;;;;4401715;32;20077;-61
2021/08/11 02:50:45;;;;;;;0.40;0.40;;;15.40;99.90;;;;;;4400757;32;20580;-63
2021/08/11 02:53:15;;;;;;;0.40;0.40;;;15.40;99.90;;;;;;4414665;32;20069;-62
2021/08/11 02:55:41;;;;;;;0.57;0.57;;;15.40;99.90;;;;;;4415446;32;20070;-63
2021/08/11 02:58:07;;;;;;;6.03;1.27;;;15.40;99.90;;;;;;4415518;32;20081;-62
2021/08/11 03:00:33;;;;;;;0.52;0.52;;;15.40;99.90;;;;;;4414158;32;20522;-62
2021/08/11 03:03:00;;;;;;;0.77;0.73;;;15.50;99.90;;;;;;4388244;32;20078;-62
2021/08/11 03:05:25;;;;;;;3.08;1.00;;;15.50;99.90;;;;;;4415755;32;20061;-64
2021/08/11 03:07:51;;;;;;;0.50;0.50;;;15.50;99.90;;;;;;4414414;32;20428;-63
2021/08/11 03:10:16;;;;;;;0.80;0.50;;;15.40;99.90;;;;;;4413747;32;20065;-62
2021/08/11 03:12:46;;;;;;;0.40;0.40;;;15.50;99.90;;;;;;4414218;32;20069;-62
2021/08/11 03:15:13;;;;;;;1.77;0.73;;;15.50;99.90;;;;;;4401914;32;20061;-62
2021/08/11 03:17:39;;;;;;;0.55;0.50;;;15.50;99.90;;;;;;4401782;32;20061;-62
2021/08/11 03:20:06;;;;;;;0.40;0.40;;;15.40;99.90;;;;;;4401117;32;20070;-63
2021/08/11 03:22:32;;;;;;;0.65;0.60;;;15.40;99.90;;;;;;4389318;32;20216;-63
2021/08/11 03:24:57;;;;;;;4.15;0.73;;;15.40;99.90;;;;;;4415131;32;20543;-62
2021/08/11 03:27:22;;;;;;;0.47;0.47;;;15.40;99.90;;;;;;4413830;32;20073;-62
2021/08/11 03:29:48;;;;;;;0.60;0.60;;;15.30;99.90;;;;;;4414287;32;20074;-63
2021/08/11 03:32:13;;;;;;;1.08;0.57;;;15.30;99.90;;;;;;4414507;32;20074;-62
2021/08/11 03:34:39;;;;;;;0.40;0.40;;;15.30;99.90;;;;;;4414646;32;20065;-62
2021/08/11 03:37:06;;;;;;;0.62;0.45;;;15.30;99.90;;;;;;4414430;32;20062;-63
2021/08/11 03:39:31;;;;;;;0.85;0.82;;;15.20;99.90;;;;;;4412780;32;20069;-62
2021/08/11 03:41:57;;;;;;;0.70;0.70;;;15.20;99.90;;;;;;4414639;32;20089;-63
2021/08/11 03:44:22;;;;;;;0.40;0.40;;;15.20;99.90;;;;;;4413392;32;20072;-63
2021/08/11 03:46:48;;;;;;;0.35;0.35;;;15.10;99.90;;;;;;4413522;32;20475;-62
2021/08/11 03:49:13;;;;;;;0.40;0.40;;;15.10;99.90;;;;;;4414114;32;20070;-63
2021/08/11 03:51:39;;;;;;;0.40;0.40;;;15.10;99.90;;;;;;4399993;32;20082;-63
2021/08/11 03:54:04;;;;;;;4.05;1.25;;;15.10;99.90;;;;;;4414607;32;20369;-62
2021/08/11 03:56:30;;;;;;;0.90;0.50;;;15.20;99.90;;;;;;4414287;32;20062;-63
2021/08/11 03:58:55;;;;;;;0.90;0.85;;;15.20;99.90;;;;;;4414573;32;20116;-61
2021/08/11 04:01:21;;;;;;;1.58;0.70;;;15.20;99.90;;;;;;4413756;32;20070;-64
2021/08/11 04:03:47;;;;;;;1.45;0.80;;;15.10;99.90;;;;;;4414216;32;20085;-64
2021/08/11 04:06:13;;;;;;;0.40;0.40;;;15.10;99.90;;;;;;4413617;32;20061;-64
2021/08/11 04:08:38;;;;;;;1.90;0.90;;;15.10;99.90;;;;;;4414630;32;20463;-63
2021/08/11 04:11:04;;;;;;;0.50;0.50;;;15.10;99.90;;;;;;4413709;32;20082;-62
2021/08/11 04:13:29;;;;;;;1.52;0.73;;;15.10;99.90;;;;;;4415945;32;20065;-62
2021/08/11 04:15:55;;;;;;;0.60;0.60;;;15.10;99.90;;;;;;4416042;32;20086;-63
2021/08/11 04:18:21;;;;;;;0.57;0.57;;;15.10;99.90;;;;;;4415688;32;20061;-63
2021/08/11 04:20:46;;;;;;;0.75;0.65;;;15.10;99.90;;;;;;4414687;32;20085;-63
2021/08/11 04:23:13;;;;;;;0.75;0.68;;;15.10;99.90;;;;;;4405318;32;20065;-62
2021/08/11 04:25:41;;;;;;;0.50;0.50;;;15.00;99.90;;;;;;4411513;32;20073;-62
2021/08/11 04:28:07;;;;;;;1.02;0.93;;;15.10;99.90;;;;;;4398431;32;20061;-62
2021/08/11 04:30:33;;;;;;;0.60;0.50;;;15.10;99.90;;;;;;4409369;32;20523;-65
2021/08/11 04:32:59;;;;;;;0.60;0.60;;;15.10;99.90;;;;;;4416192;32;20124;-62
2021/08/11 04:35:24;;;;;;;0.60;0.60;;;15.20;99.90;;;;;;4416246;32;20070;-63
2021/08/11 04:37:50;;;;;;;0.85;0.85;;;15.20;99.90;;;;;;4416355;32;20090;-62
2021/08/11 04:40:15;;;;;;;0.98;0.95;;;15.20;99.90;;;;;;4416246;32;20077;-63
2021/08/11 04:42:41;;;;;;;0.80;0.80;;;15.10;99.90;;;;;;4416395;32;20073;-63
2021/08/11 04:45:08;;;;;;;0.45;0.45;;;15.10;99.90;;;;;;4416792;32;20475;-63
2021/08/11 04:47:34;;;;;;;2.37;0.50;;;15.20;99.90;;;;;;4415924;32;20523;-62
2021/08/11 04:49:59;;;;;;;1.30;1.02;;;15.20;99.90;;;;;;4415143;32;20065;-62
2021/08/11 04:52:25;;;;;;;0.57;0.50;;;15.20;99.90;;;;;;4413750;32;20078;-63
2021/08/11 04:54:50;;;;;;;0.50;0.50;;;15.30;99.90;;;;;;4405189;32;20086;-64
2021/08/11 04:57:17;;;;;;;0.62;0.45;;;15.10;99.90;;;;;;4401975;32;20073;-63
2021/08/11 04:59:42;;;;;;;1.08;0.95;;;15.10;99.90;;;;;;4397561;32;20069;-63
2021/08/11 05:02:08;;;;;;;4.70;1.37;;;15.10;99.90;;;;;;4411231;32;20098;-63
2021/08/11 05:04:33;;;;;;;0.70;0.60;;;15.20;99.90;;;;;;4412962;32;20081;-63
2021/08/11 05:07:03;;;;;;;0.57;0.57;;;15.20;99.90;;;;;;4410327;32;20086;-63
2021/08/11 05:09:29;;;;;;;1.05;0.95;;;15.30;99.90;;;;;;4411167;32;20073;-63
2021/08/11 05:11:54;;;;;;;1.15;0.60;;;15.40;99.90;;;;;;4415291;32;20093;-63
2021/08/11 05:14:20;;;;;;;2.58;1.10;;;15.40;99.90;;;;;;4408438;32;20070;-64
2021/08/11 05:16:45;;;;;;;0.75;0.52;;;15.40;99.90;;;;;;4401131;32;20474;-65
2021/08/11 05:19:11;;;;;;;0.73;0.73;;;15.40;99.90;;;;;;4402016;32;20078;-62
2021/08/11 05:21:37;;;;;;;0.52;0.52;;;15.50;99.90;;;;;;4406405;32;20129;-64
2021/08/11 05:24:04;;;;;;;1.65;0.70;;;15.40;99.90;;;;;;4413551;32;20078;-63
2021/08/11 05:26:29;;;;;;;1.83;1.00;;;15.50;99.90;;;;;;4399009;32;20102;-61
2021/08/11 05:28:56;;;;;;;0.68;0.68;;;15.60;99.90;;;;;;4405558;32;20481;-65
2021/08/11 05:31:21;;;;;;;1.12;0.73;;;15.60;99.90;;;;;;4390932;32;20249;-65
2021/08/11 05:33:47;;;;;;;2.97;1.17;;;15.60;99.90;;;;;;4402761;32;20669;-62
2021/08/11 05:36:13;;;;;;;1.35;0.70;;;15.70;99.90;;;;;;4407792;32;20066;-66
2021/08/11 05:38:38;;;;;;;1.65;0.80;;;15.60;99.90;;;;;;4408358;32;20094;-62
2021/08/11 05:41:06;;;;;;;0.40;0.40;;;15.70;99.90;;;;;;4402433;32;20359;-63
2021/08/11 05:43:31;;;;;;;5.95;0.50;;;15.70;99.90;;;;;;4395921;32;20069;-64
2021/08/11 05:45:57;;;;;;;2.53;0.73;;;15.70;99.90;;;;;;4406125;32;20067;-63
2021/08/11 05:48:23;;;;;;;1.50;0.85;;;15.80;99.90;;;;;;4409259;32;20074;-63
2021/08/11 05:50:48;;;;;;;0.77;0.77;;;15.80;99.90;;;;;;4407123;32;20271;-63
2021/08/11 05:53:14;;;;;;;1.95;0.52;;;15.90;99.90;;;;;;4401411;32;20104;-65
2021/08/11 05:55:39;;;;;;;1.33;0.82;;;15.90;99.90;;;;;;4401863;32;20531;-64
2021/08/11 05:58:05;;;;;;;0.90;0.77;;;15.90;99.90;;;;;;4404051;32;20092;-62
2021/08/11 06:00:30;;;;;;;0.80;0.80;;;16.10;99.90;;;;;;4400702;32;20081;-63
2021/08/11 06:02:57;;;;;;;2.75;0.77;;;16.10;99.90;;;;;;4399813;32;20276;-62
2021/08/11 06:05:23;;;;;;;2.53;0.68;;;16.10;99.90;;;;;;4388516;32;20456;-62
2021/08/11 06:07:48;;;;;;;1.48;0.70;;;16.20;99.90;;;;;;4406289;32;20160;-64
2021/08/11 06:10:14;;;;;;;3.33;0.95;;;16.30;99.90;;;;;;4405684;32;20627;-64
2021/08/11 06:12:39;;;;;;;1.42;0.85;;;16.30;99.90;;;;;;4409160;32;20400;-63
2021/08/11 06:15:05;;;;;;;2.05;0.50;;;16.40;99.90;;;;;;4406404;32;20479;-62
2021/08/11 06:17:31;;;;;;;1.45;0.82;;;16.50;99.90;;;;;;4400875;32;20078;-66
2021/08/11 06:19:56;;;;;;;13.75;1.00;;;16.50;99.90;;;;;;4405190;32;20155;-63
2021/08/11 06:22:23;;;;;;;1.50;0.77;;;16.50;99.90;;;;;;4399261;32;96871;-62
2021/08/11 06:24:48;;;;;;;0.82;0.50;;;16.40;99.90;;;;;;4402373;32;20078;-62
2021/08/11 06:27:14;;;;;;;0.50;0.50;;;16.40;99.90;;;;;;4402709;32;21039;-62
2021/08/11 06:29:39;;;;;;;0.30;0.30;;;16.30;99.90;;;;;;4398658;32;20165;-62
2021/08/11 06:32:05;;;;;;;5.93;1.00;;;16.30;99.90;;;;;;4407188;32;20491;-59
2021/08/11 06:34:31;;;;;;;0.88;0.68;;;16.40;99.90;;;;;;4389388;32;20061;-64
2021/08/11 06:36:56;;;;;;;1.17;0.45;;;16.40;99.90;;;;;;4401083;32;20125;-63
2021/08/11 06:39:23;;;;;;;0.40;0.40;;;16.40;99.90;;;;;;4399938;32;20089;-64
2021/08/11 06:41:49;;;;;;;1.30;1.02;;;16.40;99.90;;;;;;4409824;32;20543;-65
2021/08/11 06:44:14;;;;;;;3.10;0.80;;;16.30;99.90;;;;;;4403078;32;20082;-65
2021/08/11 06:46:40;;;;;;;0.90;0.85;;;16.30;99.90;;;;;;4403345;32;20086;-66
2021/08/11 06:49:05;;;;;;;0.93;0.93;;;16.40;99.90;;;;;;4407258;32;20204;-66
2021/08/11 06:51:31;;;;;;;7.15;1.58;;;16.50;99.90;;;;;;4402962;32;20190;-65
2021/08/11 06:53:56;;;;;;;1.00;0.93;;;16.40;99.90;;;;;;4402826;32;20085;-66
2021/08/11 06:56:22;;;;;;;0.95;0.70;;;16.40;99.90;;;;;;4405259;32;20090;-66
2021/08/11 06:58:47;;;;;;;0.60;0.60;;;16.40;99.90;;;;;;4403762;32;20444;-65
2021/08/11 07:01:13;;;;;;;1.40;0.95;;;16.60;99.90;;;;;;4407265;32;20117;-66
2021/08/11 07:03:38;;;;;;;1.40;0.80;;;16.70;99.90;;;;;;4401690;32;20393;-66
2021/08/11 07:06:04;;;;;;;0.50;0.50;;;16.80;99.90;;;;;;4410625;32;20074;-65
2021/08/11 07:08:29;;;;;;;0.32;0.32;;;16.80;99.90;;;;;;4407261;32;20075;-67
2021/08/11 07:10:55;;;;;;;0.95;0.70;;;16.70;99.90;;;;;;4402940;32;20562;-66
2021/08/11 07:13:21;;;;;;;2.25;0.77;;;16.60;99.90;;;;;;4391463;32;20101;-66
2021/08/11 07:15:46;;;;;;;1.55;0.80;;;16.70;99.90;;;;;;4387286;32;20065;-66
2021/08/11 07:18:16;;;;;;;0.70;0.70;;;16.80;99.90;;;;;;4406212;32;20085;-66
2021/08/11 07:20:42;;;;;;;0.60;0.60;;;16.90;99.90;;;;;;4402624;32;20544;-66
2021/08/11 07:23:08;;;;;;;1.10;0.57;;;17.00;99.90;;;;;;4390814;32;20151;-64
2021/08/11 07:25:34;;;;;;;0.60;0.52;;;17.10;99.90;;;;;;4394688;32;20070;-65
2021/08/11 07:27:59;;;;;;;2.08;1.02;;;17.10;99.90;;;;;;4407069;32;20120;-65
2021/08/11 07:30:25;;;;;;;0.73;0.60;;;17.10;99.90;;;;;;4409163;32;20485;-64
2021/08/11 07:32:51;;;;;;;8.50;1.37;;;17.10;99.90;;;;;;4389697;32;20116;-66
2021/08/11 07:35:16;;;;;;;0.50;0.50;;;17.10;99.90;;;;;;4384774;32;20484;-66
2021/08/11 07:37:46;;;;;;;0.88;0.70;;;17.30;99.90;;;;;;4387206;32;20066;-65
2021/08/11 07:40:13;;;;;;;0.70;0.70;;;17.30;99.90;;;;;;4400677;32;20086;-65
2021/08/11 07:42:40;;;;;;;1.65;0.68;;;17.30;99.90;;;;;;4382629;32;20544;-66
2021/08/11 07:45:05;;;;;;;0.43;0.43;;;17.20;99.90;;;;;;4405506;32;20078;-65
2021/08/11 07:47:31;;;;;;;1.45;0.62;;;17.30;99.90;;;;;;4403426;32;20487;-65
2021/08/11 07:49:56;;;;;;;1.65;0.82;;;17.40;99.90;;;;;;4400069;32;20524;-65
2021/08/11 07:52:22;;;;;;;1.35;0.98;;;17.50;99.90;;;;;;4404285;32;20169;-64
2021/08/11 07:54:47;;;;;;;0.50;0.50;;;17.60;99.90;;;;;;4400168;32;20108;-64
2021/08/11 07:57:13;;;;;;;0.75;0.73;;;17.60;99.90;;;;;;4404914;32;20082;-65
2021/08/11 07:59:38;;;;;;;0.47;0.47;;;17.60;99.90;;;;;;4405196;32;20077;-64
2021/08/11 08:02:08;;;;;;;1.60;0.98;;;17.70;99.90;;;;;;4406857;32;20526;-64
2021/08/11 08:04:34;;;;;;;0.60;0.60;;;17.80;99.90;;;;;;4401715;32;20070;-65
2021/08/11 08:06:59;;;;;;;6.30;0.73;;;18.00;99.90;;;;;;4406474;32;20112;-64
2021/08/11 08:09:24;;;;;;;0.82;0.50;;;18.00;99.90;;;;;;4404077;32;20062;-65
2021/08/11 08:11:50;;;;;;;2.87;0.95;;;18.00;99.90;;;;;;4402979;32;20101;-65
2021/08/11 08:14:15;;;;;;;1.87;0.93;;;17.90;99.90;;;;;;4403936;32;20066;-64
2021/08/11 08:16:41;;;;;;;1.05;0.95;;;18.00;99.90;;;;;;4404706;32;20149;-62
2021/08/11 08:19:06;;;;;;;0.75;0.57;;;18.10;99.90;;;;;;4404416;32;20472;-64
2021/08/11 08:21:32;;;;;;;0.80;0.40;;;18.20;99.90;;;;;;4402245;32;20074;-65
2021/08/11 08:23:57;;;;;;;0.50;0.50;;;18.30;99.90;;;;;;4399599;32;20105;-65
2021/08/11 08:26:23;;;;;;;0.40;0.40;;;18.40;99.90;;;;;;4404329;32;20548;-66
2021/08/11 08:28:49;;;;;;;1.67;0.80;;;18.40;99.90;;;;;;4404567;32;20112;-66
2021/08/11 08:31:16;;;;;;;0.85;0.75;;;18.50;99.90;;;;;;4402835;32;20078;-66
2021/08/11 08:33:41;;;;;;;1.65;0.95;;;18.40;99.90;;;;;;4390378;32;20125;-66
2021/08/11 08:36:07;;;;;;;1.08;0.80;;;18.30;99.90;;;;;;4404696;32;20130;-68
2021/08/11 08:38:34;;;;;;;0.45;0.45;;;18.40;99.90;;;;;;4400518;32;20511;-67
2021/08/11 08:40:59;;;;;;;0.60;0.60;;;18.50;99.90;;;;;;4403996;32;20093;-65
2021/08/11 08:43:26;;;;;;;2.62;0.98;;;18.50;99.90;;;;;;4390324;32;20254;-66
2021/08/11 08:45:52;;;;;;;0.50;0.50;;;18.50;99.90;;;;;;4399695;32;20469;-66
2021/08/11 08:48:18;;;;;;;0.30;0.30;;;18.60;99.90;;;;;;4391179;32;20070;-66
2021/08/11 08:50:47;;;;;;;0.47;0.47;;;18.60;99.90;;;;;;4402718;32;20495;-67
2021/08/11 08:53:14;;;;;;;2.33;1.00;;;18.70;99.90;;;;;;4407899;32;20136;-66
2021/08/11 08:55:41;;;;;;;1.42;1.00;;;18.70;99.90;;;;;;4391070;32;20137;-66
2021/08/11 08:58:06;;;;;;;0.43;0.40;;;18.90;99.90;;;;;;4405195;32;20440;-67
2021/08/11 09:00:34;;;;;;;0.60;0.60;;;19.10;99.90;;;;;;4403374;32;20136;-66
2021/08/11 09:03:00;;;;;;;6.05;0.82;;;19.20;99.90;;;;;;4391002;32;20078;-67
2021/08/11 09:05:26;;;;;;;0.60;0.60;;;19.20;99.90;;;;;;4400893;32;20073;-66
2021/08/11 09:07:52;;;;;;;0.57;0.57;;;19.10;99.90;;;;;;4409445;32;20136;-66
2021/08/11 09:10:27;;;;;;;4.47;0.85;;;19.10;99.90;;;;;;4393413;32;20152;-65
2021/08/11 09:12:54;;;;;;;0.90;0.82;;;19.30;99.90;;;;;;4393216;32;20156;-66
2021/08/11 09:15:39;;;;;;;0.43;0.43;;;19.50;99.90;;;;;;4390163;32;20073;-67
2021/08/11 09:18:16;;;;;;;0.43;0.43;;;19.40;99.90;;;;;;4402543;32;20121;-67
2021/08/11 09:20:45;;;;;;;1.27;0.60;;;19.30;99.90;;;;;;4406218;32;20058;-67
2021/08/11 09:23:13;;;;;;;0.37;0.37;;;19.40;99.90;;;;;;4402574;32;20150;-67
2021/08/11 09:26:01;;;;;;;2.08;0.50;;;19.60;99.90;;;;;;4402798;32;20069;-68
2021/08/11 09:28:28;;;;;;;1.55;0.60;;;19.80;99.90;;;;;;4377870;32;20061;-66
2021/08/11 09:30:54;;;;;;;1.55;1.05;;;20.00;99.90;;;;;;4374904;32;20066;-68
2021/08/11 09:33:25;;;;;;;0.40;0.40;;;20.10;99.90;;;;;;4403485;32;20058;-68
2021/08/11 09:35:51;;;;;;;0.40;0.40;;;20.20;99.90;;;;;;4396749;32;20526;-68
2021/08/11 09:38:17;;;;;;;0.50;0.50;;;20.40;99.90;;;;;;4404320;32;20061;-68
2021/08/11 09:40:44;;;;;;;1.55;1.10;;;20.80;99.90;;;;;;4402350;32;20319;-68
2021/08/11 09:43:13;;;;;;;0.40;0.40;;;20.80;99.90;;;;;;4402504;32;20086;-68
2021/08/11 09:45:44;;;;;;;0.37;0.37;;;20.80;99.90;;;;;;4406050;32;20466;-68
2021/08/11 09:48:10;;;;;;;0.60;0.60;;;20.60;99.90;;;;;;4405904;32;20073;-68
2021/08/11 09:50:45;;;;;;;0.73;0.55;;;20.60;99.90;;;;;;4401706;32;20082;-68
2021/08/11 09:53:13;;;;;;;0.45;0.43;;;20.60;99.90;;;;;;4402905;32;20299;-68
2021/08/11 09:56:02;;;;;;;0.40;0.40;;;20.80;99.90;;;;;;4390395;32;20124;-68
2021/08/11 09:58:30;;;;;;;0.60;0.60;;;21.00;99.90;;;;;;4394922;32;20065;-67
2021/08/11 10:00:57;;;;;;;0.40;0.40;;;21.00;99.90;;;;;;4404631;32;20377;-67
2021/08/11 10:03:22;;;;;;;0.40;0.40;;;21.10;99.90;;;;;;4404981;32;20074;-67
2021/08/11 10:05:50;;;;;;;0.30;0.30;;;21.00;99.90;;;;;;4401673;32;20296;-67
2021/08/11 10:08:26;;;;;;;0.30;0.30;;;20.90;99.90;;;;;;4405596;32;20405;-68
2021/08/11 10:10:52;;;;;;;0.30;0.30;;;21.00;99.90;;;;;;4388409;32;21047;-72
2021/08/11 10:13:20;;;;;;;0.28;0.28;;;21.20;99.90;;;;;;4387838;32;20065;-67
2021/08/11 10:15:46;;;;;;;0.47;0.47;;;21.40;99.90;;;;;;4401352;32;20089;-66
2021/08/11 10:18:15;;;;;;;0.37;0.37;;;21.50;99.90;;;;;;4398082;32;20199;-67
2021/08/11 10:20:43;;;;;;;0.40;0.40;;;21.90;99.90;;;;;;4388611;32;20062;-66
2021/08/11 10:23:09;;;;;;;0.22;0.22;;;21.90;99.90;;;;;;4400946;32;20416;-67
2021/08/11 10:25:34;;;;;;;1.35;0.30;;;22.10;99.90;;;;;;4391656;32;21927;-67
2021/08/11 10:28:00;;;;;;;0.30;0.30;;;22.50;99.90;;;;;;4398695;32;20081;-66
2021/08/11 10:30:26;;;;;;;0.30;0.30;;;22.40;99.90;;;;;;4399814;32;20106;-67
2021/08/11 10:32:52;;;;;;;5.15;1.02;;;22.60;99.90;;;;;;4402728;32;20143;-65
2021/08/11 10:35:18;;;;;;;0.30;0.30;;;22.90;99.90;;;;;;4400410;32;20101;-67
2021/08/11 10:37:44;;;;;;;0.40;0.40;;;22.80;99.90;;;;;;4402794;32;20424;-67
2021/08/11 10:40:10;;;;;;;0.30;0.30;;;22.70;99.90;;;;;;4386284;32;20370;-65
2021/08/11 10:42:36;;;;;;;0.22;0.22;;;23.00;99.90;;;;;;4386763;32;20525;-66
2021/08/11 10:45:02;;;;;;;0.40;0.40;;;23.00;99.90;;;;;;4404910;32;20069;-67
2021/08/11 10:47:30;;;;;;;0.32;0.32;;;23.30;99.90;;;;;;4401924;32;20065;-67
2021/08/11 10:49:59;;;;;;;0.70;0.52;;;23.50;99.90;;;;;;4385923;32;20078;-67
2021/08/11 10:52:26;;;;;;;0.62;0.62;;;23.80;99.90;;;;;;4398215;32;20078;-66
2021/08/11 10:54:55;;;;;;;0.35;0.35;;;24.00;99.90;;;;;;4379971;32;20102;-66
2021/08/11 10:57:40;;;;;;;0.35;0.35;;;23.90;99.90;;;;;;4403142;32;20698;-67
2021/08/11 11:00:08;;;;;;;0.20;0.20;;;23.90;99.90;;;;;;4400995;32;20097;-65
2021/08/11 11:02:43;;;;;;;0.20;0.20;;;24.00;99.90;;;;;;4380849;32;20077;-65
2021/08/11 11:05:31;;;;;;;0.30;0.30;;;24.30;99.90;;;;;;4403104;32;20074;-66
2021/08/11 11:08:15;;;;;;;0.10;0.10;;;24.70;99.90;;;;;;4396745;32;20069;-65
2021/08/11 11:10:43;;;;;;;1.10;0.65;;;24.40;99.90;;;;;;4404843;32;20098;-65
2021/08/11 11:13:26;;;;;;;0.22;0.22;;;23.80;99.90;;;;;;4403635;32;20482;-65
2021/08/11 11:15:53;;;;;;;0.35;0.35;;;23.30;99.90;;;;;;4406342;32;20073;-65
2021/08/11 11:18:21;;;;;;;0.40;0.40;;;23.50;99.90;;;;;;4400624;32;20057;-66
2021/08/11 11:20:49;;;;;;;0.15;0.15;;;23.50;99.90;;;;;;4385640;32;20404;-66
2021/08/11 11:23:42;;;;;;;0.43;0.40;;;23.40;99.90;;;;;;4387437;32;20480;-65
2021/08/11 11:26:10;;;;;;;0.30;0.30;;;23.10;99.90;;;;;;4391082;32;20065;-65
2021/08/11 11:28:57;;;;;;;0.20;0.20;;;22.90;99.90;;;;;;4405427;32;20089;-65
2021/08/11 11:31:34;;;;;;;0.35;0.22;;;22.70;99.90;;;;;;4391451;32;20066;-65
2021/08/11 11:34:20;;;;;;;0.30;0.30;;;22.50;99.90;;;;;;4405190;32;20130;-65
2021/08/11 11:37:07;;;;;;;0.30;0.30;;;22.30;99.90;;;;;;4386267;32;20541;-65
2021/08/11 11:39:35;;;;;;;0.30;0.30;;;22.20;99.90;;;;;;4390707;32;20062;-66
2021/08/11 11:42:12;;;;;;;0.25;0.25;;;22.10;99.90;;;;;;4392929;32;20097;-66
2021/08/11 11:44:58;;;;;;;0.43;0.43;;;22.60;99.90;;;;;;4400089;32;20937;-66
2021/08/11 11:47:45;;;;;;;0.73;0.65;;;22.70;99.90;;;;;;4383153;32;20110;-66
2021/08/11 11:50:25;;;;;;;0.30;0.30;;;22.90;99.90;;;;;;4399290;32;20144;-65
2021/08/11 11:52:52;;;;;;;0.20;0.20;;;22.70;99.90;;;;;;4387450;32;20161;-65
2021/08/11 11:55:30;;;;;;;0.20;0.20;;;22.50;99.90;;;;;;4402269;32;20069;-67
2021/08/11 11:58:01;;;;;;;0.40;0.40;;;22.20;99.90;;;;;;4389404;32;20085;-66
2021/08/11 12:00:27;;;;;;;0.22;0.22;;;22.60;99.90;;;;;;4387750;32;20058;-66
2021/08/11 12:02:54;;;;;;;0.40;0.40;;;23.50;99.90;;;;;;4385527;32;20081;-66
2021/08/11 12:05:21;;;;;;;0.30;0.30;;;24.40;99.90;;;;;;4406514;32;20074;-66
2021/08/11 12:07:47;;;;;;;1.17;0.30;;;25.10;99.10;;;;;;4388732;32;20082;-66
2021/08/11 12:10:31;;;;;;;1.40;0.25;;;25.90;97.40;;;;;;4391253;32;20066;-66
2021/08/11 12:13:00;;;;;;;0.55;0.25;;;26.60;95.20;;;;;;4389076;32;20405;-67
2021/08/11 12:15:28;;;;;;;0.10;0.10;;;26.70;94.70;;;;;;4401953;32;20076;-67
2021/08/11 12:17:56;;;;;;;0.25;0.17;;;26.60;94.20;;;;;;4391278;32;20066;-67
2021/08/11 12:20:27;;;;;;;0.55;0.25;;;26.80;94.70;;;;;;4393306;32;20093;-67
2021/08/11 12:22:52;;;;;;;0.05;0.05;;;26.70;94.20;;;;;;4385114;32;20078;-67
2021/08/11 12:25:21;;;;;;;0.55;0.30;;;26.80;93.40;;;;;;4387773;32;20070;-67
2021/08/11 12:28:09;;;;;;;0.35;0.10;;;26.90;93.00;;;;;;4400322;32;20485;-67
2021/08/11 12:30:37;;;;;;;0.20;0.20;;;26.90;91.30;;;;;;4389179;32;20082;-67
2021/08/11 12:33:04;;;;;;;0.22;0.22;;;27.20;91.80;;;;;;4399174;32;20097;-67
2021/08/11 12:35:30;;;;;;;0.20;0.15;;;27.70;91.40;;;;;;4379868;32;20084;-66
2021/08/11 12:37:56;;;;;;;2.45;0.20;;;28.00;91.20;;;;;;4406200;32;20337;-67
2021/08/11 12:40:39;;;;;;;0.20;0.20;;;28.10;90.60;;;;;;4402848;32;20117;-66
2021/08/11 12:43:06;;;;;;;1.58;0.35;;;27.80;91.00;;;;;;4392037;32;20081;-68
2021/08/11 12:45:49;;;;;;;0.00;0.00;;;27.40;91.60;;;;;;4405124;32;20199;-66
2021/08/11 12:48:27;;;;;;;0.10;0.10;;;27.40;91.40;;;;;;4401653;32;20081;-66
2021/08/11 12:50:54;;;;;;;0.20;0.20;;;27.30;91.30;;;;;;4400184;32;20081;-68
2021/08/11 12:53:32;;;;;;;0.10;0.10;;;27.20;91.80;;;;;;4406305;32;20188;-67